East Liberty, Pennsylvania
Current Conditions -  °F | °C
As of 10:41 AM on Saturday 22 Nov 2014 (Local Time) from KAGC Reporting Station
Light Rain Light Rain  
Wind Chill: 27°   Ceiling: 2800
Heat Index: 35°   Visibility: 10mi
Dew Point: 12°   Wind: 12mph
Humidity: 39%   Direction: 190°S
Pressure: 30.28"   Gusts: NA
Location:  40.4715°N, 79.9138°W
Report Text: KAGC 221541Z 19010KT 10SM -RA BKN028 BKN040 OVC070 02/M11 A3028 RMK AO2 RAB39 P0000 T00171111
Loading
Personal Weather Stations






























Interactive Weather Map New forecast layout! Learn more

10-Day Weather Forecast

Advertisements
Track Severe Weather on mobile